sensor_id;sensor_type;location;lat;lon;timestamp;P1;durP1;ratioP1;P2;durP2;ratioP2
21239;SDS011;10778;48.962;9.018;2023-10-13T00:01:54;16.15;;;8.85;;
21239;SDS011;10778;48.962;9.018;2023-10-13T00:04:21;14.20;;;8.88;;
21239;SDS011;10778;48.962;9.018;2023-10-13T00:06:56;15.60;;;9.48;;
21239;SDS011;10778;48.962;9.018;2023-10-13T00:09:28;15.43;;;9.45;;
21239;SDS011;10778;48.962;9.018;2023-10-13T00:12:04;13.68;;;8.88;;
21239;SDS011;10778;48.962;9.018;2023-10-13T00:14:34;14.52;;;9.40;;
21239;SDS011;10778;48.962;9.018;2023-10-13T00:17:01;14.88;;;9.25;;
21239;SDS011;10778;48.962;9.018;2023-10-13T00:19:31;14.50;;;9.20;;
21239;SDS011;10778;48.962;9.018;2023-10-13T00:22:13;15.65;;;9.30;;
21239;SDS011;10778;48.962;9.018;2023-10-13T00:24:42;17.08;;;9.13;;
21239;SDS011;10778;48.962;9.018;2023-10-13T00:29:56;12.23;;;8.80;;
21239;SDS011;10778;48.962;9.018;2023-10-13T00:32:45;13.98;;;9.10;;
21239;SDS011;10778;48.962;9.018;2023-10-13T00:35:22;15.65;;;9.65;;
21239;SDS011;10778;48.962;9.018;2023-10-13T00:37:54;12.73;;;9.27;;
21239;SDS011;10778;48.962;9.018;2023-10-13T00:40:23;13.68;;;8.95;;
21239;SDS011;10778;48.962;9.018;2023-10-13T00:43:00;16.42;;;10.27;;
21239;SDS011;10778;48.962;9.018;2023-10-13T00:45:45;13.43;;;9.20;;
21239;SDS011;10778;48.962;9.018;2023-10-13T00:48:35;18.20;;;10.55;;
21239;SDS011;10778;48.962;9.018;2023-10-13T00:51:12;18.67;;;10.35;;
21239;SDS011;10778;48.962;9.018;2023-10-13T00:54:08;18.23;;;10.38;;
21239;SDS011;10778;48.962;9.018;2023-10-13T00:56:38;18.70;;;11.13;;
21239;SDS011;10778;48.962;9.018;2023-10-13T00:59:10;18.38;;;10.40;;
21239;SDS011;10778;48.962;9.018;2023-10-13T01:01:39;16.10;;;10.35;;
21239;SDS011;10778;48.962;9.018;2023-10-13T01:04:08;17.88;;;10.20;;
21239;SDS011;10778;48.962;9.018;2023-10-13T01:06:38;18.55;;;10.38;;
21239;SDS011;10778;48.962;9.018;2023-10-13T01:09:06;19.15;;;10.23;;
21239;SDS011;10778;48.962;9.018;2023-10-13T01:11:42;15.23;;;10.38;;
21239;SDS011;10778;48.962;9.018;2023-10-13T01:14:14;20.42;;;11.27;;
21239;SDS011;10778;48.962;9.018;2023-10-13T01:16:44;17.63;;;10.77;;
21239;SDS011;10778;48.962;9.018;2023-10-13T01:19:14;15.77;;;10.75;;
21239;SDS011;10778;48.962;9.018;2023-10-13T01:21:50;16.08;;;10.55;;
21239;SDS011;10778;48.962;9.018;2023-10-13T01:24:30;14.00;;;9.93;;
21239;SDS011;10778;48.962;9.018;2023-10-13T01:27:03;16.45;;;10.40;;
21239;SDS011;10778;48.962;9.018;2023-10-13T01:29:40;15.38;;;10.13;;
21239;SDS011;10778;48.962;9.018;2023-10-13T01:32:06;15.35;;;9.77;;
21239;SDS011;10778;48.962;9.018;2023-10-13T01:34:35;19.88;;;10.27;;
21239;SDS011;10778;48.962;9.018;2023-10-13T01:37:03;14.55;;;9.70;;
21239;SDS011;10778;48.962;9.018;2023-10-13T01:39:31;15.43;;;9.50;;
21239;SDS011;10778;48.962;9.018;2023-10-13T01:41:57;16.40;;;9.93;;
21239;SDS011;10778;48.962;9.018;2023-10-13T01:44:24;15.40;;;9.65;;
21239;SDS011;10778;48.962;9.018;2023-10-13T01:46:53;17.98;;;9.90;;
21239;SDS011;10778;48.962;9.018;2023-10-13T01:49:19;18.23;;;9.57;;
21239;SDS011;10778;48.962;9.018;2023-10-13T01:51:48;14.05;;;10.32;;
21239;SDS011;10778;48.962;9.018;2023-10-13T01:54:14;15.32;;;10.10;;
21239;SDS011;10778;48.962;9.018;2023-10-13T01:56:41;15.32;;;9.85;;
21239;SDS011;10778;48.962;9.018;2023-10-13T01:59:10;12.52;;;8.88;;
21239;SDS011;10778;48.962;9.018;2023-10-13T02:01:37;16.20;;;9.52;;
21239;SDS011;10778;48.962;9.018;2023-10-13T02:04:05;14.70;;;9.52;;
21239;SDS011;10778;48.962;9.018;2023-10-13T02:06:32;15.88;;;9.45;;
21239;SDS011;10778;48.962;9.018;2023-10-13T02:09:00;15.68;;;8.90;;
21239;SDS011;10778;48.962;9.018;2023-10-13T02:11:39;16.90;;;10.02;;
21239;SDS011;10778;48.962;9.018;2023-10-13T02:14:06;14.10;;;9.00;;
21239;SDS011;10778;48.962;9.018;2023-10-13T02:16:32;15.75;;;9.27;;
21239;SDS011;10778;48.962;9.018;2023-10-13T02:18:58;13.88;;;9.80;;
21239;SDS011;10778;48.962;9.018;2023-10-13T02:21:30;16.10;;;9.70;;
21239;SDS011;10778;48.962;9.018;2023-10-13T02:23:57;13.98;;;9.60;;
21239;SDS011;10778;48.962;9.018;2023-10-13T02:26:30;14.18;;;9.82;;
21239;SDS011;10778;48.962;9.018;2023-10-13T02:29:00;13.88;;;9.68;;
21239;SDS011;10778;48.962;9.018;2023-10-13T02:31:36;12.20;;;9.00;;
21239;SDS011;10778;48.962;9.018;2023-10-13T02:34:04;14.13;;;9.35;;
21239;SDS011;10778;48.962;9.018;2023-10-13T02:36:34;14.02;;;9.30;;
21239;SDS011;10778;48.962;9.018;2023-10-13T02:39:13;16.67;;;10.05;;
21239;SDS011;10778;48.962;9.018;2023-10-13T02:41:39;15.05;;;9.95;;
21239;SDS011;10778;48.962;9.018;2023-10-13T02:44:07;14.02;;;9.70;;
21239;SDS011;10778;48.962;9.018;2023-10-13T02:46:35;14.82;;;9.57;;
21239;SDS011;10778;48.962;9.018;2023-10-13T02:49:05;16.67;;;9.93;;
21239;SDS011;10778;48.962;9.018;2023-10-13T02:51:39;13.18;;;10.23;;
21239;SDS011;10778;48.962;9.018;2023-10-13T02:54:09;14.43;;;9.93;;
21239;SDS011;10778;48.962;9.018;2023-10-13T02:56:36;13.57;;;9.27;;
21239;SDS011;10778;48.962;9.018;2023-10-13T02:59:03;13.70;;;9.48;;
21239;SDS011;10778;48.962;9.018;2023-10-13T03:01:34;16.88;;;9.25;;
21239;SDS011;10778;48.962;9.018;2023-10-13T03:04:01;13.18;;;9.10;;
21239;SDS011;10778;48.962;9.018;2023-10-13T03:06:28;14.32;;;9.35;;
21239;SDS011;10778;48.962;9.018;2023-10-13T03:09:01;13.48;;;9.60;;
21239;SDS011;10778;48.962;9.018;2023-10-13T03:11:45;15.93;;;10.05;;
21239;SDS011;10778;48.962;9.018;2023-10-13T03:14:15;14.30;;;9.73;;
21239;SDS011;10778;48.962;9.018;2023-10-13T03:16:54;16.10;;;9.98;;
21239;SDS011;10778;48.962;9.018;2023-10-13T03:19:21;13.77;;;9.88;;
21239;SDS011;10778;48.962;9.018;2023-10-13T03:21:47;13.45;;;9.73;;
21239;SDS011;10778;48.962;9.018;2023-10-13T03:24:30;13.60;;;9.35;;
21239;SDS011;10778;48.962;9.018;2023-10-13T03:27:02;15.27;;;9.48;;
21239;SDS011;10778;48.962;9.018;2023-10-13T03:29:38;14.43;;;9.65;;
21239;SDS011;10778;48.962;9.018;2023-10-13T03:32:12;12.43;;;9.18;;
21239;SDS011;10778;48.962;9.018;2023-10-13T03:34:44;14.30;;;9.88;;
21239;SDS011;10778;48.962;9.018;2023-10-13T03:37:26;12.77;;;9.10;;
21239;SDS011;10778;48.962;9.018;2023-10-13T03:42:32;15.30;;;8.98;;
21239;SDS011;10778;48.962;9.018;2023-10-13T03:44:58;15.93;;;9.60;;
21239;SDS011;10778;48.962;9.018;2023-10-13T03:47:24;13.45;;;9.05;;
21239;SDS011;10778;48.962;9.018;2023-10-13T03:49:57;12.63;;;9.02;;
21239;SDS011;10778;48.962;9.018;2023-10-13T03:52:41;13.18;;;9.00;;
21239;SDS011;10778;48.962;9.018;2023-10-13T03:55:08;14.18;;;9.90;;
21239;SDS011;10778;48.962;9.018;2023-10-13T03:57:41;14.70;;;8.88;;
21239;SDS011;10778;48.962;9.018;2023-10-13T04:00:08;14.82;;;9.63;;
21239;SDS011;10778;48.962;9.018;2023-10-13T04:02:38;13.50;;;9.10;;
21239;SDS011;10778;48.962;9.018;2023-10-13T04:05:04;13.30;;;9.93;;
21239;SDS011;10778;48.962;9.018;2023-10-13T04:07:35;13.98;;;9.73;;
21239;SDS011;10778;48.962;9.018;2023-10-13T04:10:27;15.43;;;9.48;;
21239;SDS011;10778;48.962;9.018;2023-10-13T04:13:11;14.43;;;9.88;;
21239;SDS011;10778;48.962;9.018;2023-10-13T04:15:56;13.95;;;9.45;;
21239;SDS011;10778;48.962;9.018;2023-10-13T04:18:40;15.65;;;9.68;;
21239;SDS011;10778;48.962;9.018;2023-10-13T04:21:21;12.82;;;9.40;;
21239;SDS011;10778;48.962;9.018;2023-10-13T04:24:07;17.40;;;9.68;;
21239;SDS011;10778;48.962;9.018;2023-10-13T04:26:50;14.85;;;9.30;;
21239;SDS011;10778;48.962;9.018;2023-10-13T04:29:35;13.48;;;9.35;;
21239;SDS011;10778;48.962;9.018;2023-10-13T04:32:12;14.25;;;9.00;;
21239;SDS011;10778;48.962;9.018;2023-10-13T04:34:41;14.20;;;9.80;;
21239;SDS011;10778;48.962;9.018;2023-10-13T04:37:11;13.30;;;9.30;;
21239;SDS011;10778;48.962;9.018;2023-10-13T04:39:58;14.20;;;10.10;;
21239;SDS011;10778;48.962;9.018;2023-10-13T04:42:37;12.88;;;9.35;;
21239;SDS011;10778;48.962;9.018;2023-10-13T04:45:18;15.32;;;9.43;;
21239;SDS011;10778;48.962;9.018;2023-10-13T04:47:58;13.75;;;9.25;;
21239;SDS011;10778;48.962;9.018;2023-10-13T04:50:45;14.40;;;9.20;;
21239;SDS011;10778;48.962;9.018;2023-10-13T04:53:16;15.90;;;8.93;;
21239;SDS011;10778;48.962;9.018;2023-10-13T04:55:59;17.10;;;10.13;;
21239;SDS011;10778;48.962;9.018;2023-10-13T04:58:33;12.30;;;9.25;;
21239;SDS011;10778;48.962;9.018;2023-10-13T05:01:00;13.23;;;9.50;;
21239;SDS011;10778;48.962;9.018;2023-10-13T05:03:45;13.25;;;8.90;;
21239;SDS011;10778;48.962;9.018;2023-10-13T05:06:29;13.32;;;9.35;;
21239;SDS011;10778;48.962;9.018;2023-10-13T05:09:10;13.55;;;9.30;;
21239;SDS011;10778;48.962;9.018;2023-10-13T05:11:56;12.50;;;9.25;;
21239;SDS011;10778;48.962;9.018;2023-10-13T05:14:40;14.40;;;8.88;;
21239;SDS011;10778;48.962;9.018;2023-10-13T05:17:25;14.63;;;9.27;;
21239;SDS011;10778;48.962;9.018;2023-10-13T05:20:09;13.07;;;8.63;;
21239;SDS011;10778;48.962;9.018;2023-10-13T05:23:04;15.35;;;9.32;;
21239;SDS011;10778;48.962;9.018;2023-10-13T05:25:49;13.20;;;9.18;;
21239;SDS011;10778;48.962;9.018;2023-10-13T05:28:33;15.57;;;8.88;;
21239;SDS011;10778;48.962;9.018;2023-10-13T05:31:34;13.80;;;8.45;;
21239;SDS011;10778;48.962;9.018;2023-10-13T05:34:19;12.30;;;8.20;;
21239;SDS011;10778;48.962;9.018;2023-10-13T05:37:03;10.05;;;7.85;;
21239;SDS011;10778;48.962;9.018;2023-10-13T05:39:48;13.35;;;9.32;;
21239;SDS011;10778;48.962;9.018;2023-10-13T05:42:32;13.40;;;8.50;;
21239;SDS011;10778;48.962;9.018;2023-10-13T05:45:17;11.40;;;8.10;;
21239;SDS011;10778;48.962;9.018;2023-10-13T05:47:43;12.65;;;8.20;;
21239;SDS011;10778;48.962;9.018;2023-10-13T05:50:09;11.55;;;8.13;;
21239;SDS011;10778;48.962;9.018;2023-10-13T05:52:55;14.18;;;8.90;;
21239;SDS011;10778;48.962;9.018;2023-10-13T05:55:24;13.02;;;8.55;;
21239;SDS011;10778;48.962;9.018;2023-10-13T05:58:09;13.93;;;9.02;;
21239;SDS011;10778;48.962;9.018;2023-10-13T06:00:55;13.32;;;8.50;;
21239;SDS011;10778;48.962;9.018;2023-10-13T06:03:40;13.90;;;8.65;;
21239;SDS011;10778;48.962;9.018;2023-10-13T06:06:24;12.00;;;8.40;;
21239;SDS011;10778;48.962;9.018;2023-10-13T06:09:09;12.75;;;8.55;;
21239;SDS011;10778;48.962;9.018;2023-10-13T06:11:54;13.50;;;8.93;;
21239;SDS011;10778;48.962;9.018;2023-10-13T06:14:38;12.65;;;9.13;;
21239;SDS011;10778;48.962;9.018;2023-10-13T06:17:23;13.75;;;9.30;;
21239;SDS011;10778;48.962;9.018;2023-10-13T06:20:08;14.80;;;9.00;;
21239;SDS011;10778;48.962;9.018;2023-10-13T06:22:53;14.25;;;9.02;;
21239;SDS011;10778;48.962;9.018;2023-10-13T06:25:38;14.45;;;8.70;;
21239;SDS011;10778;48.962;9.018;2023-10-13T06:28:23;12.77;;;8.43;;
21239;SDS011;10778;48.962;9.018;2023-10-13T06:31:07;14.88;;;8.80;;
21239;SDS011;10778;48.962;9.018;2023-10-13T06:33:38;12.30;;;8.80;;
21239;SDS011;10778;48.962;9.018;2023-10-13T06:36:10;13.77;;;9.18;;
21239;SDS011;10778;48.962;9.018;2023-10-13T06:38:37;11.82;;;7.82;;
21239;SDS011;10778;48.962;9.018;2023-10-13T06:41:03;13.25;;;8.07;;
21239;SDS011;10778;48.962;9.018;2023-10-13T06:43:34;12.60;;;7.68;;
21239;SDS011;10778;48.962;9.018;2023-10-13T06:46:06;13.00;;;8.23;;
21239;SDS011;10778;48.962;9.018;2023-10-13T06:48:42;14.85;;;8.52;;
21239;SDS011;10778;48.962;9.018;2023-10-13T06:51:09;12.82;;;9.30;;
21239;SDS011;10778;48.962;9.018;2023-10-13T06:53:47;17.55;;;13.85;;
21239;SDS011;10778;48.962;9.018;2023-10-13T06:56:16;16.08;;;10.65;;
21239;SDS011;10778;48.962;9.018;2023-10-13T06:58:53;11.95;;;8.43;;
21239;SDS011;10778;48.962;9.018;2023-10-13T07:01:30;13.13;;;8.35;;
21239;SDS011;10778;48.962;9.018;2023-10-13T07:04:04;11.88;;;8.00;;
21239;SDS011;10778;48.962;9.018;2023-10-13T07:06:39;12.63;;;8.00;;
21239;SDS011;10778;48.962;9.018;2023-10-13T07:09:10;14.85;;;7.82;;
21239;SDS011;10778;48.962;9.018;2023-10-13T07:11:58;11.07;;;7.07;;
21239;SDS011;10778;48.962;9.018;2023-10-13T07:14:31;11.80;;;7.40;;
21239;SDS011;10778;48.962;9.018;2023-10-13T07:17:06;12.05;;;6.82;;
21239;SDS011;10778;48.962;9.018;2023-10-13T07:19:33;9.02;;;6.53;;
21239;SDS011;10778;48.962;9.018;2023-10-13T07:22:01;11.35;;;7.43;;
21239;SDS011;10778;48.962;9.018;2023-10-13T07:24:46;9.07;;;6.72;;
21239;SDS011;10778;48.962;9.018;2023-10-13T07:27:15;11.60;;;6.63;;
21239;SDS011;10778;48.962;9.018;2023-10-13T07:29:49;12.15;;;6.65;;
21239;SDS011;10778;48.962;9.018;2023-10-13T07:32:32;13.13;;;6.75;;
21239;SDS011;10778;48.962;9.018;2023-10-13T07:34:59;12.02;;;6.43;;
21239;SDS011;10778;48.962;9.018;2023-10-13T07:37:37;10.52;;;6.50;;
21239;SDS011;10778;48.962;9.018;2023-10-13T07:40:09;13.35;;;6.72;;
21239;SDS011;10778;48.962;9.018;2023-10-13T07:42:51;13.68;;;6.80;;
21239;SDS011;10778;48.962;9.018;2023-10-13T07:45:18;11.05;;;6.70;;
21239;SDS011;10778;48.962;9.018;2023-10-13T07:47:47;12.80;;;6.97;;
21239;SDS011;10778;48.962;9.018;2023-10-13T07:50:15;10.18;;;6.75;;
21239;SDS011;10778;48.962;9.018;2023-10-13T07:52:50;10.75;;;6.68;;
21239;SDS011;10778;48.962;9.018;2023-10-13T07:55:45;10.63;;;7.28;;
21239;SDS011;10778;48.962;9.018;2023-10-13T07:58:12;12.45;;;6.70;;
21239;SDS011;10778;48.962;9.018;2023-10-13T08:00:39;13.10;;;7.40;;
21239;SDS011;10778;48.962;9.018;2023-10-13T08:03:11;11.65;;;7.20;;
21239;SDS011;10778;48.962;9.018;2023-10-13T08:05:41;10.40;;;7.10;;
21239;SDS011;10778;48.962;9.018;2023-10-13T08:08:36;11.35;;;6.78;;
21239;SDS011;10778;48.962;9.018;2023-10-13T08:11:07;12.95;;;7.20;;
21239;SDS011;10778;48.962;9.018;2023-10-13T08:13:49;11.85;;;7.05;;
21239;SDS011;10778;48.962;9.018;2023-10-13T08:16:20;9.63;;;6.20;;
21239;SDS011;10778;48.962;9.018;2023-10-13T08:18:57;11.90;;;6.78;;
21239;SDS011;10778;48.962;9.018;2023-10-13T08:21:27;13.15;;;6.97;;
21239;SDS011;10778;48.962;9.018;2023-10-13T08:23:57;13.02;;;7.30;;
21239;SDS011;10778;48.962;9.018;2023-10-13T08:26:27;11.63;;;7.22;;
21239;SDS011;10778;48.962;9.018;2023-10-13T08:29:03;13.55;;;7.20;;
21239;SDS011;10778;48.962;9.018;2023-10-13T08:31:42;12.73;;;6.50;;
21239;SDS011;10778;48.962;9.018;2023-10-13T08:34:08;11.63;;;6.93;;
21239;SDS011;10778;48.962;9.018;2023-10-13T08:36:41;12.27;;;6.35;;
21239;SDS011;10778;48.962;9.018;2023-10-13T08:39:07;11.63;;;6.45;;
21239;SDS011;10778;48.962;9.018;2023-10-13T08:42:08;8.90;;;5.80;;
21239;SDS011;10778;48.962;9.018;2023-10-13T08:44:43;12.10;;;6.00;;
21239;SDS011;10778;48.962;9.018;2023-10-13T08:47:17;9.85;;;5.70;;
21239;SDS011;10778;48.962;9.018;2023-10-13T08:49:50;12.38;;;5.30;;
21239;SDS011;10778;48.962;9.018;2023-10-13T08:52:18;8.15;;;5.13;;
21239;SDS011;10778;48.962;9.018;2023-10-13T08:55:18;8.40;;;4.10;;
21239;SDS011;10778;48.962;9.018;2023-10-13T08:58:23;10.85;;;4.55;;
21239;SDS011;10778;48.962;9.018;2023-10-13T09:00:54;11.27;;;4.15;;
21239;SDS011;10778;48.962;9.018;2023-10-13T09:03:23;8.38;;;3.83;;
21239;SDS011;10778;48.962;9.018;2023-10-13T09:05:54;14.80;;;4.25;;
21239;SDS011;10778;48.962;9.018;2023-10-13T09:08:32;14.73;;;4.70;;
21239;SDS011;10778;48.962;9.018;2023-10-13T09:11:10;12.80;;;4.00;;
21239;SDS011;10778;48.962;9.018;2023-10-13T09:13:37;13.38;;;4.47;;
21239;SDS011;10778;48.962;9.018;2023-10-13T09:16:10;11.57;;;4.05;;
21239;SDS011;10778;48.962;9.018;2023-10-13T09:18:48;11.05;;;4.03;;
21239;SDS011;10778;48.962;9.018;2023-10-13T09:21:15;12.85;;;4.35;;
21239;SDS011;10778;48.962;9.018;2023-10-13T09:23:55;8.70;;;4.15;;
21239;SDS011;10778;48.962;9.018;2023-10-13T09:26:41;14.50;;;4.00;;
21239;SDS011;10778;48.962;9.018;2023-10-13T09:29:14;9.32;;;3.65;;
21239;SDS011;10778;48.962;9.018;2023-10-13T09:31:47;9.73;;;3.78;;
21239;SDS011;10778;48.962;9.018;2023-10-13T09:34:25;14.40;;;4.40;;
21239;SDS011;10778;48.962;9.018;2023-10-13T09:36:58;9.50;;;4.07;;
21239;SDS011;10778;48.962;9.018;2023-10-13T09:39:25;10.15;;;4.00;;
21239;SDS011;10778;48.962;9.018;2023-10-13T09:42:17;10.38;;;4.28;;
21239;SDS011;10778;48.962;9.018;2023-10-13T09:44:47;10.13;;;4.00;;
21239;SDS011;10778;48.962;9.018;2023-10-13T09:47:20;9.45;;;4.15;;
21239;SDS011;10778;48.962;9.018;2023-10-13T09:49:57;12.00;;;3.83;;
21239;SDS011;10778;48.962;9.018;2023-10-13T09:52:29;9.93;;;4.10;;
21239;SDS011;10778;48.962;9.018;2023-10-13T09:55:05;8.75;;;4.05;;
21239;SDS011;10778;48.962;9.018;2023-10-13T09:57:40;10.52;;;3.95;;
21239;SDS011;10778;48.962;9.018;2023-10-13T10:00:11;7.18;;;3.90;;
21239;SDS011;10778;48.962;9.018;2023-10-13T10:02:58;9.00;;;3.97;;
21239;SDS011;10778;48.962;9.018;2023-10-13T10:05:26;7.72;;;4.00;;
21239;SDS011;10778;48.962;9.018;2023-10-13T10:07:56;11.18;;;4.15;;
21239;SDS011;10778;48.962;9.018;2023-10-13T10:13:25;10.60;;;3.80;;
21239;SDS011;10778;48.962;9.018;2023-10-13T10:16:03;8.65;;;4.18;;
21239;SDS011;10778;48.962;9.018;2023-10-13T10:18:41;11.38;;;3.97;;
21239;SDS011;10778;48.962;9.018;2023-10-13T10:21:07;10.82;;;3.78;;
21239;SDS011;10778;48.962;9.018;2023-10-13T10:23:37;12.48;;;3.72;;
21239;SDS011;10778;48.962;9.018;2023-10-13T10:26:10;10.35;;;3.78;;
21239;SDS011;10778;48.962;9.018;2023-10-13T10:28:57;8.82;;;3.55;;
21239;SDS011;10778;48.962;9.018;2023-10-13T10:31:30;7.82;;;3.90;;
21239;SDS011;10778;48.962;9.018;2023-10-13T10:34:10;7.20;;;3.53;;
21239;SDS011;10778;48.962;9.018;2023-10-13T10:36:38;8.60;;;4.20;;
21239;SDS011;10778;48.962;9.018;2023-10-13T10:39:08;11.00;;;3.97;;
21239;SDS011;10778;48.962;9.018;2023-10-13T10:41:37;10.88;;;4.10;;
21239;SDS011;10778;48.962;9.018;2023-10-13T10:44:09;10.07;;;3.78;;
21239;SDS011;10778;48.962;9.018;2023-10-13T10:46:41;9.57;;;3.88;;
21239;SDS011;10778;48.962;9.018;2023-10-13T10:49:20;7.88;;;3.55;;
21239;SDS011;10778;48.962;9.018;2023-10-13T10:51:59;9.07;;;3.65;;
21239;SDS011;10778;48.962;9.018;2023-10-13T10:54:30;8.00;;;3.75;;
21239;SDS011;10778;48.962;9.018;2023-10-13T10:56:59;13.02;;;4.07;;
21239;SDS011;10778;48.962;9.018;2023-10-13T10:59:38;10.68;;;4.30;;
21239;SDS011;10778;48.962;9.018;2023-10-13T11:02:05;12.43;;;4.38;;
21239;SDS011;10778;48.962;9.018;2023-10-13T11:04:33;9.40;;;4.25;;
21239;SDS011;10778;48.962;9.018;2023-10-13T11:07:21;8.15;;;4.32;;
21239;SDS011;10778;48.962;9.018;2023-10-13T11:09:49;10.77;;;4.10;;
21239;SDS011;10778;48.962;9.018;2023-10-13T11:12:18;8.93;;;3.92;;
21239;SDS011;10778;48.962;9.018;2023-10-13T11:15:02;8.00;;;3.95;;
21239;SDS011;10778;48.962;9.018;2023-10-13T11:17:32;10.40;;;3.88;;
21239;SDS011;10778;48.962;9.018;2023-10-13T11:20:09;11.00;;;4.25;;
21239;SDS011;10778;48.962;9.018;2023-10-13T11:22:45;7.30;;;3.75;;
21239;SDS011;10778;48.962;9.018;2023-10-13T11:28:13;9.43;;;4.03;;
21239;SDS011;10778;48.962;9.018;2023-10-13T11:30:53;9.13;;;3.83;;
21239;SDS011;10778;48.962;9.018;2023-10-13T11:33:24;8.95;;;4.10;;
21239;SDS011;10778;48.962;9.018;2023-10-13T11:35:55;10.05;;;4.07;;
21239;SDS011;10778;48.962;9.018;2023-10-13T11:38:28;8.93;;;3.67;;
21239;SDS011;10778;48.962;9.018;2023-10-13T11:41:08;7.65;;;3.70;;
21239;SDS011;10778;48.962;9.018;2023-10-13T11:43:38;10.63;;;3.60;;
21239;SDS011;10778;48.962;9.018;2023-10-13T11:46:12;7.65;;;3.35;;
21239;SDS011;10778;48.962;9.018;2023-10-13T11:48:40;12.98;;;3.88;;
21239;SDS011;10778;48.962;9.018;2023-10-13T11:51:09;9.65;;;3.80;;
21239;SDS011;10778;48.962;9.018;2023-10-13T11:53:43;6.35;;;3.10;;
21239;SDS011;10778;48.962;9.018;2023-10-13T11:56:10;9.43;;;3.75;;
21239;SDS011;10778;48.962;9.018;2023-10-13T11:58:37;9.30;;;3.83;;
21239;SDS011;10778;48.962;9.018;2023-10-13T12:01:03;10.63;;;3.70;;
21239;SDS011;10778;48.962;9.018;2023-10-13T12:03:39;8.63;;;3.72;;
21239;SDS011;10778;48.962;9.018;2023-10-13T12:06:24;7.10;;;3.10;;
21239;SDS011;10778;48.962;9.018;2023-10-13T12:09:03;7.47;;;3.40;;
21239;SDS011;10778;48.962;9.018;2023-10-13T12:11:45;9.27;;;3.75;;
21239;SDS011;10778;48.962;9.018;2023-10-13T12:14:16;11.82;;;3.70;;
21239;SDS011;10778;48.962;9.018;2023-10-13T12:16:47;10.02;;;3.35;;
21239;SDS011;10778;48.962;9.018;2023-10-13T12:19:17;10.35;;;3.80;;
21239;SDS011;10778;48.962;9.018;2023-10-13T12:21:52;8.05;;;3.40;;
21239;SDS011;10778;48.962;9.018;2023-10-13T12:24:22;8.88;;;3.67;;
21239;SDS011;10778;48.962;9.018;2023-10-13T12:27:01;9.63;;;3.70;;
21239;SDS011;10778;48.962;9.018;2023-10-13T12:29:49;7.03;;;3.45;;
21239;SDS011;10778;48.962;9.018;2023-10-13T12:32:19;10.15;;;3.58;;
21239;SDS011;10778;48.962;9.018;2023-10-13T12:34:56;11.05;;;3.70;;
21239;SDS011;10778;48.962;9.018;2023-10-13T12:37:23;9.30;;;3.40;;
21239;SDS011;10778;48.962;9.018;2023-10-13T12:40:17;8.75;;;3.50;;
21239;SDS011;10778;48.962;9.018;2023-10-13T12:43:02;9.23;;;3.38;;
21239;SDS011;10778;48.962;9.018;2023-10-13T12:45:50;8.77;;;3.30;;
21239;SDS011;10778;48.962;9.018;2023-10-13T12:48:36;9.88;;;3.30;;
21239;SDS011;10778;48.962;9.018;2023-10-13T12:51:21;10.40;;;3.42;;
21239;SDS011;10778;48.962;9.018;2023-10-13T12:53:54;12.02;;;3.55;;
21239;SDS011;10778;48.962;9.018;2023-10-13T12:56:21;10.45;;;3.30;;
21239;SDS011;10778;48.962;9.018;2023-10-13T12:58:54;12.85;;;3.67;;
21239;SDS011;10778;48.962;9.018;2023-10-13T13:01:24;9.23;;;3.40;;
21239;SDS011;10778;48.962;9.018;2023-10-13T13:03:52;6.85;;;3.40;;
21239;SDS011;10778;48.962;9.018;2023-10-13T13:06:22;7.78;;;3.30;;
21239;SDS011;10778;48.962;9.018;2023-10-13T13:08:56;8.75;;;3.50;;
21239;SDS011;10778;48.962;9.018;2023-10-13T13:11:24;6.57;;;3.22;;
21239;SDS011;10778;48.962;9.018;2023-10-13T13:13:50;9.13;;;3.53;;
21239;SDS011;10778;48.962;9.018;2023-10-13T13:16:17;10.05;;;3.60;;
21239;SDS011;10778;48.962;9.018;2023-10-13T13:18:45;8.15;;;3.20;;
21239;SDS011;10778;48.962;9.018;2023-10-13T13:21:11;6.85;;;3.30;;
21239;SDS011;10778;48.962;9.018;2023-10-13T13:23:55;6.65;;;3.25;;
21239;SDS011;10778;48.962;9.018;2023-10-13T13:26:21;6.97;;;3.95;;
21239;SDS011;10778;48.962;9.018;2023-10-13T13:28:48;8.38;;;3.60;;
21239;SDS011;10778;48.962;9.018;2023-10-13T13:31:18;7.35;;;3.58;;
21239;SDS011;10778;48.962;9.018;2023-10-13T13:33:44;7.28;;;3.28;;
21239;SDS011;10778;48.962;9.018;2023-10-13T13:36:10;9.32;;;3.72;;
21239;SDS011;10778;48.962;9.018;2023-10-13T13:38:41;7.15;;;3.50;;
21239;SDS011;10778;48.962;9.018;2023-10-13T13:41:15;9.05;;;3.28;;
21239;SDS011;10778;48.962;9.018;2023-10-13T13:43:46;11.65;;;3.22;;
21239;SDS011;10778;48.962;9.018;2023-10-13T13:46:20;6.97;;;3.08;;
21239;SDS011;10778;48.962;9.018;2023-10-13T13:48:53;6.45;;;3.47;;
21239;SDS011;10778;48.962;9.018;2023-10-13T13:51:33;10.93;;;3.70;;
21239;SDS011;10778;48.962;9.018;2023-10-13T13:54:03;8.63;;;3.50;;
21239;SDS011;10778;48.962;9.018;2023-10-13T13:56:32;9.15;;;4.00;;
21239;SDS011;10778;48.962;9.018;2023-10-13T13:59:03;7.38;;;3.40;;
21239;SDS011;10778;48.962;9.018;2023-10-13T14:01:40;6.18;;;3.42;;
21239;SDS011;10778;48.962;9.018;2023-10-13T14:04:06;7.85;;;3.33;;
21239;SDS011;10778;48.962;9.018;2023-10-13T14:06:32;12.70;;;3.40;;
21239;SDS011;10778;48.962;9.018;2023-10-13T14:09:00;8.75;;;3.38;;
21239;SDS011;10778;48.962;9.018;2023-10-13T14:11:29;5.53;;;3.38;;
21239;SDS011;10778;48.962;9.018;2023-10-13T14:16:39;7.68;;;3.17;;
21239;SDS011;10778;48.962;9.018;2023-10-13T14:19:13;10.85;;;3.80;;
21239;SDS011;10778;48.962;9.018;2023-10-13T14:21:55;6.70;;;3.35;;
21239;SDS011;10778;48.962;9.018;2023-10-13T14:24:22;9.70;;;3.22;;
21239;SDS011;10778;48.962;9.018;2023-10-13T14:26:59;7.10;;;3.40;;
21239;SDS011;10778;48.962;9.018;2023-10-13T14:29:37;9.98;;;3.53;;
21239;SDS011;10778;48.962;9.018;2023-10-13T14:32:10;13.93;;;3.45;;
21239;SDS011;10778;48.962;9.018;2023-10-13T14:34:39;9.10;;;3.67;;
21239;SDS011;10778;48.962;9.018;2023-10-13T14:37:06;6.65;;;3.38;;
21239;SDS011;10778;48.962;9.018;2023-10-13T14:39:33;7.72;;;3.38;;
21239;SDS011;10778;48.962;9.018;2023-10-13T14:42:01;12.00;;;3.30;;
21239;SDS011;10778;48.962;9.018;2023-10-13T14:44:28;8.65;;;3.47;;
21239;SDS011;10778;48.962;9.018;2023-10-13T14:46:54;6.13;;;3.28;;
21239;SDS011;10778;48.962;9.018;2023-10-13T14:49:23;7.80;;;3.20;;
21239;SDS011;10778;48.962;9.018;2023-10-13T14:51:49;11.32;;;3.45;;
21239;SDS011;10778;48.962;9.018;2023-10-13T14:54:15;7.40;;;3.63;;
21239;SDS011;10778;48.962;9.018;2023-10-13T14:56:42;6.70;;;3.35;;
21239;SDS011;10778;48.962;9.018;2023-10-13T14:59:08;11.10;;;3.38;;
21239;SDS011;10778;48.962;9.018;2023-10-13T15:01:42;8.35;;;3.50;;
21239;SDS011;10778;48.962;9.018;2023-10-13T15:04:08;7.28;;;3.17;;
21239;SDS011;10778;48.962;9.018;2023-10-13T15:06:34;7.10;;;3.20;;
21239;SDS011;10778;48.962;9.018;2023-10-13T15:09:01;10.45;;;3.80;;
21239;SDS011;10778;48.962;9.018;2023-10-13T15:11:29;11.35;;;3.33;;
21239;SDS011;10778;48.962;9.018;2023-10-13T15:14:04;8.45;;;3.35;;
21239;SDS011;10778;48.962;9.018;2023-10-13T15:16:33;7.97;;;3.63;;
21239;SDS011;10778;48.962;9.018;2023-10-13T15:18:59;7.15;;;3.40;;
21239;SDS011;10778;48.962;9.018;2023-10-13T15:21:26;8.48;;;3.17;;
21239;SDS011;10778;48.962;9.018;2023-10-13T15:24:03;9.65;;;3.40;;
21239;SDS011;10778;48.962;9.018;2023-10-13T15:26:30;9.13;;;3.55;;
21239;SDS011;10778;48.962;9.018;2023-10-13T15:28:59;8.10;;;3.53;;
21239;SDS011;10778;48.962;9.018;2023-10-13T15:31:26;10.25;;;3.40;;
21239;SDS011;10778;48.962;9.018;2023-10-13T15:34:05;13.27;;;3.90;;